Terminal Aerodrome Forecast
Issued by NWS

Home | Current Version | Previous Version | Text Only | Print | Product List | Glossary Off
Versions: 1 2 3 4 5 6 7 8 9 10 11 12 13 14

317
FTUS43 KIWX 231725
TAFSBN
TAF
KSBN 231725Z 2318/2418 32007KT P6SM BKN035
     FM232100 33009KT P6SM SCT250
     FM240100 31005KT P6SM FEW200
     FM241300 29008KT P6SM SCT050=

USA.gov is the U.S. government's official web portal to all federal, state and local government web resources and services.